Date,TemperatureHighF,TemperatureAvgF,TemperatureLowF,DewpointHighF,DewpointAvgF,DewpointLowF,HumidityHigh,HumidityAvg,HumidityLow,PressureMaxIn,PressureMinIn,WindSpeedMaxMPH,WindSpeedAvgMPH,GustSpeedMaxMPH,PrecipitationSumIn
2013-2-1,27.7,21.1,13.3,13.1,7.0,-0.2,63,54,46,29.88,29.68,5,0,7,0.35
2013-2-2,41.5,33.7,24.1,31.6,21.4,12.2,76,60,47,29.68,29.44,20,6,25,0.35
2013-2-3,45.0,37.0,29.5,30.5,23.8,16.7,81,60,42,29.53,29.38,26,7,32,0.35
2013-2-4,51.1,40.3,29.5,39.1,29.8,18.8,82,67,40,29.47,29.26,19,7,24,0.35
2013-2-5,57.9,44.7,36.1,42.6,37.0,31.9,91,76,42,29.44,29.29,16,4,20,0.35
2013-2-6,54.0,42.4,30.4,34.6,29.3,25.5,90,63,38,29.62,29.44,15,4,19,0.35
2013-2-7,66.4,49.9,41.4,44.9,32.8,26.7,58,52,45,29.47,29.26,15,5,19,0.00
2013-2-8,43.5,38.9,34.0,36.4,29.2,24.7,80,68,55,29.71,29.41,30,13,37,0.43
2013-2-9,50.2,40.7,32.2,28.8,26.3,24.4,75,58,40,29.74,29.44,20,7,25,0.43
2013-2-10,56.7,52.5,46.9,54.1,41.9,28.3,92,69,44,29.44,29.12,41,11,50,0.55
2013-2-11,55.8,45.1,34.3,53.5,30.6,24.7,92,58,39,29.53,29.26,19,7,24,0.00
2013-2-12,48.7,40.9,28.8,33.0,27.6,24.0,87,61,41,29.53,29.23,14,4,18,0.43
2013-2-13,45.9,40.1,36.3,35.9,32.2,30.0,90,74,61,29.32,29.18,30,8,36,0.04
2013-2-14,60.6,45.8,35.4,38.1,34.7,32.0,93,68,39,29.38,29.29,16,6,21,0.00
2013-2-15,48.4,39.5,29.1,34.9,24.3,13.1,77,55,42,29.59,29.38,26,8,32,0.00
2013-2-16,37.6,29.0,22.8,17.3,12.6,6.2,72,51,34,29.59,29.53,23,6,29,0.00
2013-2-17,49.1,35.3,21.6,23.3,16.9,8.0,66,48,33,29.62,29.44,20,5,25,0.00
2013-2-18,63.1,48.7,38.8,47.2,33.9,18.4,96,59,36,29.44,29.12,28,11,35,0.98
2013-2-19,46.9,37.9,29.5,43.0,21.4,10.4,87,53,36,29.65,29.21,24,10,30,0.00
2013-2-20,34.9,28.2,23.0,14.7,11.3,8.1,59,49,42,29.74,29.62,19,7,24,0.00
2013-2-21,38.7,32.3,26.1,38.2,22.5,13.5,98,69,43,29.62,29.21,34,10,41,0.47
2013-2-22,45.3,40.2,34.0,41.3,35.6,26.9,98,84,71,29.44,29.21,19,6,24,0.04
2013-2-23,47.3,35.5,27.9,26.9,23.5,19.7,82,63,42,29.44,29.32,13,4,17,0.00
2013-2-24,53.8,38.5,25.2,27.5,22.6,19.3,82,55,33,29.53,29.35,16,5,21,0.00
2013-2-25,57.7,48.1,35.6,44.9,27.1,21.4,81,45,31,29.38,28.82,27,12,38,0.04
2013-2-26,50.4,47.1,37.8,49.9,42.6,33.2,99,85,65,29.06,28.73,28,10,34,0.63
2013-2-27,38.8,37.4,34.5,33.4,29.9,26.2,83,74,61,29.26,29.06,23,10,29,0.00
2013-2-28,37.9,35.3,33.4,30.4,26.5,21.4,87,70,60,29.44,29.26,16,7,21,0.59